sensor_id;sensor_type;location;lat;lon;timestamp;pressure;altitude;pressure_sealevel;temperature;humidity
12987;BME280;58897;51.960;5.582;2023-06-22T00:00:10;101584.69;;;19.73;100.00
12987;BME280;58897;51.960;5.582;2023-06-22T00:02:38;101585.53;;;19.73;100.00
12987;BME280;58897;51.960;5.582;2023-06-22T00:05:05;101578.13;;;19.67;100.00
12987;BME280;58897;51.960;5.582;2023-06-22T00:07:32;101584.88;;;19.64;100.00
12987;BME280;58897;51.960;5.582;2023-06-22T00:09:58;101582.97;;;19.65;100.00
12987;BME280;58897;51.960;5.582;2023-06-22T00:12:25;101578.97;;;19.67;100.00
12987;BME280;58897;51.960;5.582;2023-06-22T00:14:51;101582.97;;;19.65;100.00
12987;BME280;58897;51.960;5.582;2023-06-22T00:17:18;101576.00;;;19.62;100.00
12987;BME280;58897;51.960;5.582;2023-06-22T00:19:47;101580.38;;;19.50;100.00
12987;BME280;58897;51.960;5.582;2023-06-22T00:22:13;101579.31;;;19.51;100.00
12987;BME280;58897;51.960;5.582;2023-06-22T00:24:40;101572.31;;;19.42;100.00
12987;BME280;58897;51.960;5.582;2023-06-22T00:27:06;101576.56;;;19.45;100.00
12987;BME280;58897;51.960;5.582;2023-06-22T00:29:33;101576.53;;;19.38;100.00
12987;BME280;58897;51.960;5.582;2023-06-22T00:31:59;101576.72;;;19.37;100.00
12987;BME280;58897;51.960;5.582;2023-06-22T00:34:26;101570.31;;;19.30;100.00
12987;BME280;58897;51.960;5.582;2023-06-22T00:36:52;101562.31;;;19.28;100.00
12987;BME280;58897;51.960;5.582;2023-06-22T00:39:19;101559.13;;;19.25;100.00
12987;BME280;58897;51.960;5.582;2023-06-22T00:41:46;101567.19;;;19.33;100.00
12987;BME280;58897;51.960;5.582;2023-06-22T00:44:12;101569.06;;;19.32;100.00
12987;BME280;58897;51.960;5.582;2023-06-22T00:46:39;101567.16;;;19.26;100.00
12987;BME280;58897;51.960;5.582;2023-06-22T00:49:05;101569.84;;;19.20;100.00
12987;BME280;58897;51.960;5.582;2023-06-22T00:51:32;101571.34;;;19.22;100.00
12987;BME280;58897;51.960;5.582;2023-06-22T00:53:58;101566.31;;;19.26;100.00
12987;BME280;58897;51.960;5.582;2023-06-22T00:56:25;101562.09;;;19.23;100.00
12987;BME280;58897;51.960;5.582;2023-06-22T00:58:53;101575.31;;;19.13;100.00
12987;BME280;58897;51.960;5.582;2023-06-22T01:01:20;101577.84;;;19.15;100.00
12987;BME280;58897;51.960;5.582;2023-06-22T01:03:50;101581.44;;;19.22;100.00
12987;BME280;58897;51.960;5.582;2023-06-22T01:06:31;101574.25;;;19.14;100.00
12987;BME280;58897;51.960;5.582;2023-06-22T01:09:22;101577.88;;;19.21;100.00
12987;BME280;58897;51.960;5.582;2023-06-22T01:11:55;101576.19;;;19.20;100.00
12987;BME280;58897;51.960;5.582;2023-06-22T01:14:37;101573.34;;;19.07;100.00
12987;BME280;58897;51.960;5.582;2023-06-22T01:17:08;101566.63;;;19.09;100.00
12987;BME280;58897;51.960;5.582;2023-06-22T01:19:45;101573.41;;;19.14;100.00
12987;BME280;58897;51.960;5.582;2023-06-22T01:22:30;101561.63;;;19.13;100.00
12987;BME280;58897;51.960;5.582;2023-06-22T01:25:19;101563.44;;;19.06;100.00
12987;BME280;58897;51.960;5.582;2023-06-22T01:27:58;101566.94;;;18.93;100.00
12987;BME280;58897;51.960;5.582;2023-06-22T01:30:28;101567.78;;;18.94;100.00
12987;BME280;58897;51.960;5.582;2023-06-22T01:32:57;101563.03;;;19.02;100.00
12987;BME280;58897;51.960;5.582;2023-06-22T01:35:25;101556.91;;;19.00;100.00
12987;BME280;58897;51.960;5.582;2023-06-22T01:37:52;101568.91;;;18.99;100.00
12987;BME280;58897;51.960;5.582;2023-06-22T01:40:19;101561.44;;;18.87;100.00
12987;BME280;58897;51.960;5.582;2023-06-22T01:42:47;101570.22;;;18.82;100.00
12987;BME280;58897;51.960;5.582;2023-06-22T01:45:14;101570.84;;;18.78;100.00
12987;BME280;58897;51.960;5.582;2023-06-22T01:47:42;101565.50;;;18.70;100.00
12987;BME280;58897;51.960;5.582;2023-06-22T01:50:09;101570.56;;;18.66;100.00
12987;BME280;58897;51.960;5.582;2023-06-22T01:52:37;101568.47;;;18.68;100.00
12987;BME280;58897;51.960;5.582;2023-06-22T01:55:04;101561.34;;;18.74;100.00
12987;BME280;58897;51.960;5.582;2023-06-22T01:57:32;101560.03;;;18.70;100.00
12987;BME280;58897;51.960;5.582;2023-06-22T02:00:00;101557.28;;;18.70;100.00
12987;BME280;58897;51.960;5.582;2023-06-22T02:02:33;101551.41;;;18.66;100.00
12987;BME280;58897;51.960;5.582;2023-06-22T02:05:06;101552.03;;;18.68;100.00
12987;BME280;58897;51.960;5.582;2023-06-22T02:07:41;101550.94;;;18.63;100.00
12987;BME280;58897;51.960;5.582;2023-06-22T02:10:11;101551.00;;;18.69;100.00
12987;BME280;58897;51.960;5.582;2023-06-22T02:12:42;101551.16;;;18.61;100.00
12987;BME280;58897;51.960;5.582;2023-06-22T02:15:10;101555.44;;;18.49;100.00
12987;BME280;58897;51.960;5.582;2023-06-22T02:17:38;101563.66;;;18.49;100.00
12987;BME280;58897;51.960;5.582;2023-06-22T02:20:06;101557.53;;;18.47;100.00
12987;BME280;58897;51.960;5.582;2023-06-22T02:22:34;101556.88;;;18.45;100.00
12987;BME280;58897;51.960;5.582;2023-06-22T02:25:00;101551.41;;;18.45;100.00
12987;BME280;58897;51.960;5.582;2023-06-22T02:27:27;101553.50;;;18.43;100.00
12987;BME280;58897;51.960;5.582;2023-06-22T02:29:54;101553.66;;;18.41;100.00
12987;BME280;58897;51.960;5.582;2023-06-22T02:32:20;101554.66;;;18.34;100.00
12987;BME280;58897;51.960;5.582;2023-06-22T02:34:47;101554.44;;;18.35;100.00
12987;BME280;58897;51.960;5.582;2023-06-22T02:37:14;101557.19;;;18.35;100.00
12987;BME280;58897;51.960;5.582;2023-06-22T02:39:41;101548.41;;;18.40;100.00
12987;BME280;58897;51.960;5.582;2023-06-22T02:42:07;101551.56;;;18.43;100.00
12987;BME280;58897;51.960;5.582;2023-06-22T02:44:34;101540.97;;;18.34;100.00
12987;BME280;58897;51.960;5.582;2023-06-22T02:47:01;101536.63;;;18.39;100.00
12987;BME280;58897;51.960;5.582;2023-06-22T02:49:27;101540.38;;;18.38;100.00
12987;BME280;58897;51.960;5.582;2023-06-22T02:51:54;101534.09;;;18.38;100.00
12987;BME280;58897;51.960;5.582;2023-06-22T02:54:21;101533.81;;;18.33;100.00
12987;BME280;58897;51.960;5.582;2023-06-22T02:56:48;101540.13;;;18.33;100.00
12987;BME280;58897;51.960;5.582;2023-06-22T02:59:14;101536.53;;;18.33;100.00
12987;BME280;58897;51.960;5.582;2023-06-22T03:01:41;101542.63;;;18.28;100.00
12987;BME280;58897;51.960;5.582;2023-06-22T03:04:08;101539.69;;;18.30;100.00
12987;BME280;58897;51.960;5.582;2023-06-22T03:06:37;101544.09;;;18.31;100.00
12987;BME280;58897;51.960;5.582;2023-06-22T03:09:07;101540.88;;;18.21;100.00
12987;BME280;58897;51.960;5.582;2023-06-22T03:11:34;101536.03;;;18.23;100.00
12987;BME280;58897;51.960;5.582;2023-06-22T03:14:01;101536.97;;;18.30;100.00
12987;BME280;58897;51.960;5.582;2023-06-22T03:16:28;101533.31;;;18.23;100.00
12987;BME280;58897;51.960;5.582;2023-06-22T03:18:55;101527.66;;;18.24;100.00
12987;BME280;58897;51.960;5.582;2023-06-22T03:21:22;101523.06;;;18.31;100.00
12987;BME280;58897;51.960;5.582;2023-06-22T03:23:49;101522.81;;;18.26;100.00
12987;BME280;58897;51.960;5.582;2023-06-22T03:26:19;101506.66;;;18.31;100.00
12987;BME280;58897;51.960;5.582;2023-06-22T03:28:46;101513.34;;;18.22;100.00
12987;BME280;58897;51.960;5.582;2023-06-22T03:31:12;101511.41;;;18.23;100.00
12987;BME280;58897;51.960;5.582;2023-06-22T03:33:39;101508.03;;;18.21;100.00
12987;BME280;58897;51.960;5.582;2023-06-22T03:36:05;101508.53;;;18.03;100.00
12987;BME280;58897;51.960;5.582;2023-06-22T03:38:32;101522.44;;;18.08;100.00
12987;BME280;58897;51.960;5.582;2023-06-22T03:40:58;101518.22;;;18.06;100.00
12987;BME280;58897;51.960;5.582;2023-06-22T03:43:25;101521.28;;;17.96;100.00
12987;BME280;58897;51.960;5.582;2023-06-22T03:45:52;101516.59;;;18.11;100.00
12987;BME280;58897;51.960;5.582;2023-06-22T03:48:18;101515.75;;;18.11;100.00
12987;BME280;58897;51.960;5.582;2023-06-22T03:50:45;101514.72;;;18.12;100.00
12987;BME280;58897;51.960;5.582;2023-06-22T03:53:11;101512.38;;;18.09;100.00
12987;BME280;58897;51.960;5.582;2023-06-22T03:55:48;101516.72;;;18.03;100.00
12987;BME280;58897;51.960;5.582;2023-06-22T03:58:16;101517.69;;;17.96;100.00
12987;BME280;58897;51.960;5.582;2023-06-22T04:00:42;101519.06;;;18.06;100.00
12987;BME280;58897;51.960;5.582;2023-06-22T04:03:09;101519.72;;;18.08;100.00
12987;BME280;58897;51.960;5.582;2023-06-22T04:05:36;101508.91;;;18.00;100.00
12987;BME280;58897;51.960;5.582;2023-06-22T04:08:02;101507.28;;;18.06;100.00
12987;BME280;58897;51.960;5.582;2023-06-22T04:10:29;101512.75;;;18.06;100.00
12987;BME280;58897;51.960;5.582;2023-06-22T04:12:56;101506.25;;;18.07;100.00
12987;BME280;58897;51.960;5.582;2023-06-22T04:15:22;101506.69;;;18.10;100.00
12987;BME280;58897;51.960;5.582;2023-06-22T04:17:49;101502.94;;;18.11;100.00
12987;BME280;58897;51.960;5.582;2023-06-22T04:20:16;101502.78;;;18.19;100.00
12987;BME280;58897;51.960;5.582;2023-06-22T04:22:42;101501.28;;;18.17;100.00
12987;BME280;58897;51.960;5.582;2023-06-22T04:25:09;101500.56;;;18.08;100.00
12987;BME280;58897;51.960;5.582;2023-06-22T04:27:35;101501.81;;;18.27;100.00
12987;BME280;58897;51.960;5.582;2023-06-22T04:30:03;101497.72;;;18.16;100.00
12987;BME280;58897;51.960;5.582;2023-06-22T04:32:30;101493.78;;;18.25;100.00
12987;BME280;58897;51.960;5.582;2023-06-22T04:34:57;101501.19;;;18.31;100.00
12987;BME280;58897;51.960;5.582;2023-06-22T04:37:23;101505.13;;;18.22;100.00
12987;BME280;58897;51.960;5.582;2023-06-22T04:39:50;101506.22;;;18.28;100.00
12987;BME280;58897;51.960;5.582;2023-06-22T04:42:17;101499.19;;;18.40;100.00
12987;BME280;58897;51.960;5.582;2023-06-22T04:44:43;101496.22;;;18.41;100.00
12987;BME280;58897;51.960;5.582;2023-06-22T04:47:10;101487.00;;;18.42;100.00
12987;BME280;58897;51.960;5.582;2023-06-22T04:49:37;101493.09;;;18.44;100.00
12987;BME280;58897;51.960;5.582;2023-06-22T04:52:08;101481.78;;;18.47;100.00
12987;BME280;58897;51.960;5.582;2023-06-22T04:54:37;101489.63;;;18.57;100.00
12987;BME280;58897;51.960;5.582;2023-06-22T04:57:06;101501.91;;;18.61;100.00
12987;BME280;58897;51.960;5.582;2023-06-22T04:59:37;101503.56;;;18.62;100.00
12987;BME280;58897;51.960;5.582;2023-06-22T05:02:05;101497.16;;;18.76;100.00
12987;BME280;58897;51.960;5.582;2023-06-22T05:04:32;101496.91;;;18.71;100.00
12987;BME280;58897;51.960;5.582;2023-06-22T05:06:59;101500.81;;;18.90;100.00
12987;BME280;58897;51.960;5.582;2023-06-22T05:09:29;101496.78;;;18.86;100.00
12987;BME280;58897;51.960;5.582;2023-06-22T05:11:56;101502.72;;;18.89;100.00
12987;BME280;58897;51.960;5.582;2023-06-22T05:14:26;101507.16;;;18.97;100.00
12987;BME280;58897;51.960;5.582;2023-06-22T05:16:53;101497.72;;;18.99;100.00
12987;BME280;58897;51.960;5.582;2023-06-22T05:19:19;101499.44;;;19.07;100.00
12987;BME280;58897;51.960;5.582;2023-06-22T05:21:46;101497.13;;;19.10;100.00
12987;BME280;58897;51.960;5.582;2023-06-22T05:24:12;101497.94;;;19.04;100.00
12987;BME280;58897;51.960;5.582;2023-06-22T05:26:39;101496.06;;;19.05;100.00
12987;BME280;58897;51.960;5.582;2023-06-22T05:29:06;101501.38;;;19.13;100.00
12987;BME280;58897;51.960;5.582;2023-06-22T05:31:33;101504.75;;;19.22;100.00
12987;BME280;58897;51.960;5.582;2023-06-22T05:34:00;101511.13;;;19.29;100.00
12987;BME280;58897;51.960;5.582;2023-06-22T05:36:27;101512.22;;;19.34;100.00
12987;BME280;58897;51.960;5.582;2023-06-22T05:38:53;101493.84;;;19.89;100.00
12987;BME280;58897;51.960;5.582;2023-06-22T05:41:20;101490.94;;;20.10;100.00
12987;BME280;58897;51.960;5.582;2023-06-22T05:43:46;101497.91;;;20.12;100.00
12987;BME280;58897;51.960;5.582;2023-06-22T05:46:13;101493.25;;;20.26;100.00
12987;BME280;58897;51.960;5.582;2023-06-22T05:48:40;101479.34;;;20.41;100.00
12987;BME280;58897;51.960;5.582;2023-06-22T05:51:06;101489.22;;;20.68;100.00
12987;BME280;58897;51.960;5.582;2023-06-22T05:53:33;101497.25;;;20.69;100.00
12987;BME280;58897;51.960;5.582;2023-06-22T05:55:59;101496.19;;;20.77;100.00
12987;BME280;58897;51.960;5.582;2023-06-22T05:58:26;101499.38;;;20.74;100.00
12987;BME280;58897;51.960;5.582;2023-06-22T06:00:52;101502.28;;;20.99;100.00
12987;BME280;58897;51.960;5.582;2023-06-22T06:03:19;101496.34;;;21.08;100.00
12987;BME280;58897;51.960;5.582;2023-06-22T06:05:45;101496.56;;;21.07;100.00
12987;BME280;58897;51.960;5.582;2023-06-22T06:08:12;101494.03;;;21.12;100.00
12987;BME280;58897;51.960;5.582;2023-06-22T06:10:39;101490.22;;;21.00;100.00
12987;BME280;58897;51.960;5.582;2023-06-22T06:13:05;101487.69;;;20.98;100.00
12987;BME280;58897;51.960;5.582;2023-06-22T06:15:34;101487.88;;;21.16;100.00
12987;BME280;58897;51.960;5.582;2023-06-22T06:18:01;101486.88;;;21.48;100.00
12987;BME280;58897;51.960;5.582;2023-06-22T06:20:31;101477.13;;;21.52;100.00
12987;BME280;58897;51.960;5.582;2023-06-22T06:22:58;101486.19;;;21.60;100.00
12987;BME280;58897;51.960;5.582;2023-06-22T06:25:25;101484.81;;;21.82;100.00
12987;BME280;58897;51.960;5.582;2023-06-22T06:27:53;101472.28;;;21.92;100.00
12987;BME280;58897;51.960;5.582;2023-06-22T06:30:21;101459.19;;;22.37;100.00
12987;BME280;58897;51.960;5.582;2023-06-22T06:32:49;101461.81;;;22.50;100.00
12987;BME280;58897;51.960;5.582;2023-06-22T06:35:16;101460.59;;;22.46;100.00
12987;BME280;58897;51.960;5.582;2023-06-22T06:37:46;101462.56;;;23.18;100.00
12987;BME280;58897;51.960;5.582;2023-06-22T06:40:14;101466.41;;;23.35;100.00
12987;BME280;58897;51.960;5.582;2023-06-22T06:42:46;101456.91;;;23.50;100.00
12987;BME280;58897;51.960;5.582;2023-06-22T06:45:18;101445.84;;;23.38;100.00
12987;BME280;58897;51.960;5.582;2023-06-22T06:47:46;101454.69;;;23.40;100.00
12987;BME280;58897;51.960;5.582;2023-06-22T06:50:12;101451.66;;;23.12;100.00
12987;BME280;58897;51.960;5.582;2023-06-22T06:52:39;101459.22;;;22.98;100.00
12987;BME280;58897;51.960;5.582;2023-06-22T06:55:07;101454.13;;;23.50;100.00
12987;BME280;58897;51.960;5.582;2023-06-22T06:57:35;101447.63;;;23.74;100.00
12987;BME280;58897;51.960;5.582;2023-06-22T07:00:08;101457.28;;;23.94;100.00
12987;BME280;58897;51.960;5.582;2023-06-22T07:02:39;101456.03;;;23.79;100.00
12987;BME280;58897;51.960;5.582;2023-06-22T07:05:07;101454.38;;;24.31;100.00
12987;BME280;58897;51.960;5.582;2023-06-22T07:07:35;101449.81;;;24.60;100.00
12987;BME280;58897;51.960;5.582;2023-06-22T07:10:04;101451.88;;;24.76;100.00
12987;BME280;58897;51.960;5.582;2023-06-22T07:12:32;101452.06;;;25.09;100.00
12987;BME280;58897;51.960;5.582;2023-06-22T07:15:06;101442.47;;;25.40;100.00
12987;BME280;58897;51.960;5.582;2023-06-22T07:17:36;101439.94;;;25.50;100.00
12987;BME280;58897;51.960;5.582;2023-06-22T07:20:04;101441.94;;;25.26;100.00
12987;BME280;58897;51.960;5.582;2023-06-22T07:22:43;101441.09;;;25.82;100.00
12987;BME280;58897;51.960;5.582;2023-06-22T07:25:11;101436.69;;;25.98;100.00
12987;BME280;58897;51.960;5.582;2023-06-22T07:27:46;101441.59;;;25.62;100.00
12987;BME280;58897;51.960;5.582;2023-06-22T07:30:14;101432.03;;;26.15;100.00
12987;BME280;58897;51.960;5.582;2023-06-22T07:32:40;101441.84;;;25.77;100.00
12987;BME280;58897;51.960;5.582;2023-06-22T07:35:08;101433.44;;;26.51;100.00
12987;BME280;58897;51.960;5.582;2023-06-22T07:37:34;101428.50;;;27.13;100.00
12987;BME280;58897;51.960;5.582;2023-06-22T07:40:01;101420.38;;;27.06;100.00
12987;BME280;58897;51.960;5.582;2023-06-22T07:42:32;101422.56;;;26.66;100.00
12987;BME280;58897;51.960;5.582;2023-06-22T07:44:59;101417.22;;;26.98;100.00
12987;BME280;58897;51.960;5.582;2023-06-22T07:47:26;101418.31;;;26.58;100.00
12987;BME280;58897;51.960;5.582;2023-06-22T07:49:55;101419.38;;;26.07;100.00
12987;BME280;58897;51.960;5.582;2023-06-22T07:52:24;101419.94;;;26.21;100.00
12987;BME280;58897;51.960;5.582;2023-06-22T07:54:52;101419.84;;;26.71;100.00
12987;BME280;58897;51.960;5.582;2023-06-22T07:57:19;101412.38;;;26.33;100.00
12987;BME280;58897;51.960;5.582;2023-06-22T07:59:46;101416.72;;;25.96;100.00
12987;BME280;58897;51.960;5.582;2023-06-22T08:02:13;101407.22;;;25.92;100.00
12987;BME280;58897;51.960;5.582;2023-06-22T08:04:41;101407.13;;;25.70;100.00
12987;BME280;58897;51.960;5.582;2023-06-22T08:07:07;101400.38;;;25.21;100.00
12987;BME280;58897;51.960;5.582;2023-06-22T08:09:34;101408.34;;;25.34;100.00
12987;BME280;58897;51.960;5.582;2023-06-22T08:12:00;101398.97;;;25.35;100.00
12987;BME280;58897;51.960;5.582;2023-06-22T08:14:29;101394.97;;;25.43;100.00
12987;BME280;58897;51.960;5.582;2023-06-22T08:16:55;101395.03;;;25.31;100.00
12987;BME280;58897;51.960;5.582;2023-06-22T08:19:22;101380.63;;;25.57;100.00
12987;BME280;58897;51.960;5.582;2023-06-22T08:21:49;101377.22;;;25.84;100.00
12987;BME280;58897;51.960;5.582;2023-06-22T08:24:15;101375.88;;;25.41;100.00
12987;BME280;58897;51.960;5.582;2023-06-22T08:26:42;101380.28;;;25.42;100.00
12987;BME280;58897;51.960;5.582;2023-06-22T08:29:08;101375.50;;;25.49;100.00
12987;BME280;58897;51.960;5.582;2023-06-22T08:31:35;101364.44;;;25.38;100.00
12987;BME280;58897;51.960;5.582;2023-06-22T08:34:02;101365.03;;;25.11;100.00
12987;BME280;58897;51.960;5.582;2023-06-22T08:36:28;101360.25;;;25.07;100.00
12987;BME280;58897;51.960;5.582;2023-06-22T08:38:59;101365.50;;;24.92;100.00
12987;BME280;58897;51.960;5.582;2023-06-22T08:41:28;101364.38;;;24.93;100.00
12987;BME280;58897;51.960;5.582;2023-06-22T08:43:54;101361.22;;;25.29;100.00
12987;BME280;58897;51.960;5.582;2023-06-22T08:46:22;101356.31;;;25.31;100.00
12987;BME280;58897;51.960;5.582;2023-06-22T08:48:51;101356.56;;;25.30;100.00
12987;BME280;58897;51.960;5.582;2023-06-22T08:51:17;101360.81;;;25.65;100.00
12987;BME280;58897;51.960;5.582;2023-06-22T08:53:44;101358.59;;;25.96;100.00
12987;BME280;58897;51.960;5.582;2023-06-22T08:56:11;101359.66;;;25.95;100.00
12987;BME280;58897;51.960;5.582;2023-06-22T08:58:38;101366.13;;;26.00;100.00
12987;BME280;58897;51.960;5.582;2023-06-22T09:01:04;101366.06;;;25.95;100.00
12987;BME280;58897;51.960;5.582;2023-06-22T09:03:31;101361.59;;;25.94;100.00
12987;BME280;58897;51.960;5.582;2023-06-22T09:05:59;101358.91;;;25.66;100.00
12987;BME280;58897;51.960;5.582;2023-06-22T09:08:26;101353.53;;;25.76;100.00
12987;BME280;58897;51.960;5.582;2023-06-22T09:10:52;101367.47;;;25.98;100.00
12987;BME280;58897;51.960;5.582;2023-06-22T09:13:19;101367.75;;;26.13;100.00
12987;BME280;58897;51.960;5.582;2023-06-22T09:15:45;101368.13;;;25.71;100.00
12987;BME280;58897;51.960;5.582;2023-06-22T09:18:13;101373.41;;;25.45;100.00
12987;BME280;58897;51.960;5.582;2023-06-22T09:20:39;101368.91;;;25.67;100.00
12987;BME280;58897;51.960;5.582;2023-06-22T09:23:06;101370.81;;;25.38;100.00
12987;BME280;58897;51.960;5.582;2023-06-22T09:25:32;101360.84;;;25.37;100.00
12987;BME280;58897;51.960;5.582;2023-06-22T09:27:59;101355.53;;;25.47;100.00
12987;BME280;58897;51.960;5.582;2023-06-22T09:30:25;101352.13;;;25.29;100.00
12987;BME280;58897;51.960;5.582;2023-06-22T09:32:52;101358.34;;;25.36;100.00
12987;BME280;58897;51.960;5.582;2023-06-22T09:35:20;101352.81;;;25.36;100.00
12987;BME280;58897;51.960;5.582;2023-06-22T09:37:47;101351.59;;;25.32;100.00
12987;BME280;58897;51.960;5.582;2023-06-22T09:40:14;101349.41;;;25.17;100.00
12987;BME280;58897;51.960;5.582;2023-06-22T09:42:43;101344.31;;;24.97;100.00
12987;BME280;58897;51.960;5.582;2023-06-22T09:45:10;101347.59;;;24.83;100.00
12987;BME280;58897;51.960;5.582;2023-06-22T09:47:36;101342.06;;;24.94;100.00
12987;BME280;58897;51.960;5.582;2023-06-22T09:50:04;101340.06;;;25.06;100.00
12987;BME280;58897;51.960;5.582;2023-06-22T09:52:31;101339.28;;;24.94;100.00
12987;BME280;58897;51.960;5.582;2023-06-22T09:55:13;101347.28;;;24.79;100.00
12987;BME280;58897;51.960;5.582;2023-06-22T09:57:41;101348.31;;;24.67;100.00
12987;BME280;58897;51.960;5.582;2023-06-22T10:00:09;101346.09;;;24.40;100.00
12987;BME280;58897;51.960;5.582;2023-06-22T10:02:35;101355.47;;;24.39;100.00
12987;BME280;58897;51.960;5.582;2023-06-22T10:05:02;101347.88;;;24.46;100.00
12987;BME280;58897;51.960;5.582;2023-06-22T10:07:29;101344.91;;;24.36;100.00
12987;BME280;58897;51.960;5.582;2023-06-22T10:09:56;101333.88;;;24.36;100.00
12987;BME280;58897;51.960;5.582;2023-06-22T10:12:23;101340.81;;;24.27;100.00
12987;BME280;58897;51.960;5.582;2023-06-22T10:14:49;101340.22;;;24.37;100.00
12987;BME280;58897;51.960;5.582;2023-06-22T10:17:16;101344.66;;;24.15;100.00
12987;BME280;58897;51.960;5.582;2023-06-22T10:19:43;101343.34;;;24.06;100.00
12987;BME280;58897;51.960;5.582;2023-06-22T10:22:09;101336.59;;;24.02;100.00
12987;BME280;58897;51.960;5.582;2023-06-22T10:24:36;101340.78;;;24.04;100.00
12987;BME280;58897;51.960;5.582;2023-06-22T10:27:02;101342.00;;;23.96;100.00
12987;BME280;58897;51.960;5.582;2023-06-22T10:29:29;101344.66;;;24.03;100.00
12987;BME280;58897;51.960;5.582;2023-06-22T10:31:55;101338.66;;;24.06;100.00
12987;BME280;58897;51.960;5.582;2023-06-22T10:34:22;101338.63;;;23.83;100.00
12987;BME280;58897;51.960;5.582;2023-06-22T10:36:49;101339.13;;;24.03;100.00
12987;BME280;58897;51.960;5.582;2023-06-22T10:39:18;101329.53;;;23.82;100.00
12987;BME280;58897;51.960;5.582;2023-06-22T10:41:45;101332.41;;;23.99;100.00
12987;BME280;58897;51.960;5.582;2023-06-22T10:44:11;101342.00;;;23.96;100.00
12987;BME280;58897;51.960;5.582;2023-06-22T10:46:38;101325.19;;;23.86;100.00
12987;BME280;58897;51.960;5.582;2023-06-22T10:49:05;101330.75;;;23.98;100.00
12987;BME280;58897;51.960;5.582;2023-06-22T10:51:31;101327.16;;;24.09;100.00
12987;BME280;58897;51.960;5.582;2023-06-22T10:53:58;101327.00;;;24.04;100.00
12987;BME280;58897;51.960;5.582;2023-06-22T10:56:25;101328.59;;;24.12;100.00
12987;BME280;58897;51.960;5.582;2023-06-22T10:58:51;101325.34;;;24.03;100.00
12987;BME280;58897;51.960;5.582;2023-06-22T11:01:18;101333.97;;;24.07;100.00
12987;BME280;58897;51.960;5.582;2023-06-22T11:03:51;101330.63;;;24.28;100.00
12987;BME280;58897;51.960;5.582;2023-06-22T11:06:18;101326.56;;;24.19;100.00
12987;BME280;58897;51.960;5.582;2023-06-22T11:08:45;101329.44;;;24.12;100.00
12987;BME280;58897;51.960;5.582;2023-06-22T11:11:29;101318.38;;;24.12;100.00
12987;BME280;58897;51.960;5.582;2023-06-22T11:13:56;101322.38;;;24.16;100.00
12987;BME280;58897;51.960;5.582;2023-06-22T11:16:22;101313.00;;;24.17;100.00
12987;BME280;58897;51.960;5.582;2023-06-22T11:18:49;101320.56;;;24.10;100.00
12987;BME280;58897;51.960;5.582;2023-06-22T11:21:15;101316.13;;;24.21;100.00
12987;BME280;58897;51.960;5.582;2023-06-22T11:23:42;101316.72;;;24.23;100.00
12987;BME280;58897;51.960;5.582;2023-06-22T11:26:09;101322.47;;;24.21;100.00
12987;BME280;58897;51.960;5.582;2023-06-22T11:28:35;101318.41;;;24.24;100.00
12987;BME280;58897;51.960;5.582;2023-06-22T11:31:02;101324.88;;;24.29;100.00
12987;BME280;58897;51.960;5.582;2023-06-22T11:33:42;101325.97;;;24.17;100.00
12987;BME280;58897;51.960;5.582;2023-06-22T11:36:08;101321.63;;;24.21;100.00
12987;BME280;58897;51.960;5.582;2023-06-22T11:38:35;101316.22;;;24.26;100.00
12987;BME280;58897;51.960;5.582;2023-06-22T11:41:03;101316.59;;;24.18;100.00
12987;BME280;58897;51.960;5.582;2023-06-22T11:43:29;101323.91;;;24.12;100.00
12987;BME280;58897;51.960;5.582;2023-06-22T11:45:56;101318.97;;;24.03;100.00
12987;BME280;58897;51.960;5.582;2023-06-22T11:48:24;101321.38;;;23.87;100.00
12987;BME280;58897;51.960;5.582;2023-06-22T11:50:51;101316.34;;;23.84;100.00
12987;BME280;58897;51.960;5.582;2023-06-22T11:53:17;101318.25;;;23.72;100.00
12987;BME280;58897;51.960;5.582;2023-06-22T11:55:44;101318.34;;;23.66;100.00
12987;BME280;58897;51.960;5.582;2023-06-22T11:58:11;101317.41;;;23.72;100.00
12987;BME280;58897;51.960;5.582;2023-06-22T12:00:38;101307.44;;;23.71;100.00
12987;BME280;58897;51.960;5.582;2023-06-22T12:03:18;101313.75;;;23.48;100.00
12987;BME280;58897;51.960;5.582;2023-06-22T12:05:45;101320.72;;;23.51;100.00
12987;BME280;58897;51.960;5.582;2023-06-22T12:08:11;101313.84;;;23.42;100.00
12987;BME280;58897;51.960;5.582;2023-06-22T12:10:40;101308.00;;;23.38;100.00
12987;BME280;58897;51.960;5.582;2023-06-22T12:13:06;101301.63;;;23.38;100.00
12987;BME280;58897;51.960;5.582;2023-06-22T12:15:33;101298.59;;;23.27;100.00
12987;BME280;58897;51.960;5.582;2023-06-22T12:17:59;101295.75;;;23.04;100.00
12987;BME280;58897;51.960;5.582;2023-06-22T12:20:27;101291.63;;;22.95;100.00
12987;BME280;58897;51.960;5.582;2023-06-22T12:22:54;101296.81;;;23.03;100.00
12987;BME280;58897;51.960;5.582;2023-06-22T12:25:22;101307.63;;;22.87;100.00
12987;BME280;58897;51.960;5.582;2023-06-22T12:27:49;101296.47;;;22.82;100.00
12987;BME280;58897;51.960;5.582;2023-06-22T12:30:16;101316.88;;;22.62;100.00
12987;BME280;58897;51.960;5.582;2023-06-22T12:32:43;101317.75;;;22.56;100.00
12987;BME280;58897;51.960;5.582;2023-06-22T12:35:09;101318.44;;;22.52;100.00
12987;BME280;58897;51.960;5.582;2023-06-22T12:37:43;101321.81;;;22.36;100.00
12987;BME280;58897;51.960;5.582;2023-06-22T12:40:10;101321.81;;;22.36;100.00
12987;BME280;58897;51.960;5.582;2023-06-22T12:42:37;101322.81;;;22.41;100.00